Time;durP1;ratioP1;P1;durP2;ratioP2;P2;SDS_P1;SDS_P2;PMS_P1;PMS_P2;Temp;Humidity;BMP_temperature;BMP_pressure;BME280_temperature;BME280_humidity;BME280_pressure;Samples;Min_cycle;Max_cycle;Signal;HPM_P1;HPM_P2
2023/09/27 00:00:51;;;;;;;3.33;2.17;;;16.50;99.90;;;16.74;100.00;101414.81;5241687;28;20143;-49
2023/09/27 00:03:23;;;;;;;3.10;2.35;;;16.40;99.90;;;16.68;100.00;101404.13;5239573;28;20067;-48
2023/09/27 00:05:56;;;;;;;3.40;2.35;;;16.40;99.90;;;16.65;100.00;101398.81;5230895;28;20067;-48
2023/09/27 00:08:28;;;;;;;3.17;2.15;;;16.30;99.90;;;16.65;100.00;101390.03;5222792;28;20053;-49
2023/09/27 00:11:02;;;;;;;3.60;2.30;;;16.30;99.90;;;16.67;100.00;101383.03;5239027;28;20064;-49
2023/09/27 00:13:35;;;;;;;2.75;2.13;;;16.40;99.90;;;16.68;100.00;101382.16;5228887;28;20049;-49
2023/09/27 00:16:07;;;;;;;3.03;2.30;;;16.40;99.90;;;16.67;100.00;101391.81;5222739;28;20112;-48
2023/09/27 00:18:39;;;;;;;2.80;2.45;;;16.40;99.90;;;16.61;100.00;101381.16;5232341;28;20430;-48
2023/09/27 00:21:12;;;;;;;2.78;2.30;;;16.30;99.90;;;16.53;100.00;101378.38;5238988;28;20403;-48
2023/09/27 00:23:44;;;;;;;3.08;2.35;;;16.20;99.90;;;16.46;100.00;101383.50;5231954;28;20061;-49
2023/09/27 00:26:18;;;;;;;2.97;2.45;;;16.20;99.90;;;16.40;100.00;101386.91;5209437;28;20433;-48
2023/09/27 00:28:53;;;;;;;4.18;2.67;;;16.10;99.90;;;16.34;100.00;101386.78;5222431;28;20415;-49
2023/09/27 00:31:25;;;;;;;3.72;2.33;;;16.00;99.90;;;16.28;100.00;101390.16;5229761;28;20519;-48
2023/09/27 00:33:57;;;;;;;2.92;2.25;;;16.00;99.90;;;16.23;100.00;101396.16;5230420;28;20056;-49
2023/09/27 00:36:30;;;;;;;2.90;2.25;;;15.90;99.90;;;16.18;100.00;101387.31;5223025;28;20048;-50
2023/09/27 00:39:03;;;;;;;3.25;2.63;;;15.90;99.90;;;16.12;100.00;101382.81;5222231;28;20429;-49
2023/09/27 00:41:37;;;;;;;2.17;1.98;;;15.80;99.90;;;16.09;100.00;101387.09;5232640;28;20061;-49
2023/09/27 00:44:09;;;;;;;2.90;2.03;;;15.80;99.90;;;16.06;100.00;101379.16;5233257;28;20048;-49
2023/09/27 00:46:46;;;;;;;3.42;2.20;;;15.70;99.90;;;16.02;100.00;101378.19;5218389;28;20049;-48
2023/09/27 00:49:18;;;;;;;3.40;2.42;;;15.70;99.90;;;16.00;100.00;101387.81;5224097;28;20071;-48
2023/09/27 00:51:51;;;;;;;3.95;2.10;;;15.70;99.90;;;15.97;100.00;101391.25;5212457;28;20056;-49
2023/09/27 00:54:23;;;;;;;3.45;2.30;;;15.70;99.90;;;15.91;100.00;101396.38;5237252;28;20045;-49
2023/09/27 00:56:57;;;;;;;2.83;2.10;;;15.60;99.90;;;15.88;100.00;101396.28;5238500;28;20496;-49
2023/09/27 00:59:30;;;;;;;2.65;2.10;;;15.60;99.90;;;15.84;100.00;101409.31;5238295;28;20045;-49
2023/09/27 01:02:02;;;;;;;3.08;2.10;;;15.50;99.90;;;15.81;100.00;101404.00;5217767;28;20065;-48
2023/09/27 01:04:35;;;;;;;3.72;2.50;;;15.50;99.90;;;15.77;100.00;101410.03;5202631;28;20049;-48
2023/09/27 01:07:08;;;;;;;4.85;2.42;;;15.50;99.90;;;15.73;100.00;101416.97;5228250;28;20060;-48
2023/09/27 01:09:41;;;;;;;2.20;1.88;;;15.40;99.90;;;15.70;100.00;101424.78;5221908;28;20532;-48
2023/09/27 01:12:15;;;;;;;4.63;2.60;;;15.40;99.90;;;15.65;100.00;101427.31;5238605;28;20439;-49
2023/09/27 01:14:51;;;;;;;2.45;1.98;;;15.40;99.90;;;15.62;100.00;101423.72;5215443;28;20519;-49
2023/09/27 01:17:24;;;;;;;3.03;2.35;;;15.40;99.90;;;15.58;100.00;101419.19;5236563;28;20609;-48
2023/09/27 01:19:56;;;;;;;2.53;1.92;;;15.30;99.90;;;15.57;100.00;101412.16;5221707;28;20045;-49
2023/09/27 01:22:28;;;;;;;2.65;1.92;;;15.30;99.90;;;15.59;100.00;101423.63;5238402;28;20037;-49
2023/09/27 01:25:07;;;;;;;3.85;2.30;;;15.30;99.90;;;15.57;100.00;101412.16;5238356;28;20053;-49
2023/09/27 01:27:41;;;;;;;4.80;2.42;;;15.30;99.90;;;15.57;100.00;101417.41;5229424;28;20053;-49
2023/09/27 01:30:13;;;;;;;3.45;2.33;;;15.30;99.90;;;15.54;100.00;101415.63;5230527;28;20049;-49
2023/09/27 01:32:49;;;;;;;3.08;2.60;;;15.30;99.90;;;15.53;100.00;101415.59;5222947;28;20397;-48
2023/09/27 01:35:21;;;;;;;4.72;2.50;;;15.20;99.90;;;15.50;100.00;101418.13;5216088;28;20630;-49
2023/09/27 01:37:54;;;;;;;3.65;1.95;;;15.20;99.90;;;15.47;100.00;101425.09;5213343;28;20048;-48
2023/09/27 01:40:30;;;;;;;2.85;2.35;;;15.20;99.90;;;15.45;100.00;101439.94;5231603;28;20041;-49
2023/09/27 01:43:06;;;;;;;3.05;2.30;;;15.20;99.90;;;15.43;100.00;101439.00;5212794;28;20595;-48
2023/09/27 01:45:38;;;;;;;3.33;2.50;;;15.20;99.90;;;15.44;100.00;101442.50;5238261;28;20049;-49
2023/09/27 01:48:10;;;;;;;3.67;2.50;;;15.20;99.90;;;15.40;100.00;101441.56;5214238;28;20048;-48
2023/09/27 01:50:44;;;;;;;3.15;2.25;;;15.10;99.90;;;15.36;100.00;101431.81;5238435;28;20049;-48
2023/09/27 01:53:17;;;;;;;4.15;2.25;;;15.10;99.90;;;15.34;100.00;101415.13;5226465;28;20033;-49
2023/09/27 01:55:50;;;;;;;4.70;3.05;;;15.10;99.90;;;15.34;100.00;101415.13;5241030;28;20053;-49
2023/09/27 01:58:23;;;;;;;3.75;2.38;;;15.10;99.90;;;15.37;100.00;101416.94;5235758;28;20139;-49
2023/09/27 02:00:55;;;;;;;3.75;2.47;;;15.10;99.90;;;15.35;100.00;101419.53;5222396;28;20055;-50
2023/09/27 02:03:28;;;;;;;4.32;2.22;;;15.10;99.90;;;15.34;100.00;101428.25;5233417;28;20045;-50
2023/09/27 02:06:04;;;;;;;4.10;2.42;;;15.10;99.90;;;15.32;100.00;101445.72;5233092;28;20606;-49
2023/09/27 02:08:38;;;;;;;3.92;2.22;;;15.10;99.90;;;15.29;100.00;101456.13;5241663;28;20041;-48
2023/09/27 02:11:13;;;;;;;3.55;2.55;;;15.10;99.90;;;15.26;100.00;101439.41;5238752;28;20045;-49
2023/09/27 02:13:45;;;;;;;4.65;2.55;;;15.00;99.90;;;15.21;100.00;101428.78;5224707;28;20300;-50
2023/09/27 02:16:18;;;;;;;3.50;2.53;;;15.00;99.90;;;15.22;100.00;101435.81;5241215;28;20053;-50
2023/09/27 02:18:50;;;;;;;4.05;2.90;;;15.00;99.90;;;15.21;100.00;101436.69;5224738;28;20443;-49
2023/09/27 02:21:23;;;;;;;3.08;2.67;;;15.00;99.90;;;15.20;100.00;101448.03;5224750;28;20419;-49
2023/09/27 02:23:55;;;;;;;3.03;2.00;;;14.90;99.90;;;15.18;100.00;101444.47;5239171;28;20518;-50
2023/09/27 02:26:30;;;;;;;3.00;2.10;;;14.90;99.90;;;15.13;100.00;101438.22;5224703;28;20053;-49
2023/09/27 02:29:02;;;;;;;2.83;2.05;;;14.90;99.90;;;15.07;100.00;101443.31;5229718;28;20057;-49
2023/09/27 02:31:35;;;;;;;4.88;2.78;;;14.80;99.90;;;15.01;100.00;101440.50;5214078;28;20415;-49
2023/09/27 02:34:08;;;;;;;4.53;2.53;;;14.80;99.90;;;14.98;100.00;101440.41;5225580;28;20048;-49
2023/09/27 02:36:41;;;;;;;3.33;2.38;;;14.70;99.90;;;14.92;100.00;101436.78;5240926;28;20549;-49
2023/09/27 02:39:13;;;;;;;3.17;2.33;;;14.70;99.90;;;14.88;100.00;101442.81;5232947;28;20083;-49
2023/09/27 02:41:47;;;;;;;5.22;3.05;;;14.70;99.90;;;14.86;100.00;101441.84;5224608;28;20103;-49
2023/09/27 02:44:19;;;;;;;4.78;3.03;;;14.60;99.90;;;14.84;100.00;101442.66;5223908;28;20049;-49
2023/09/27 02:46:53;;;;;;;5.32;3.13;;;14.60;99.90;;;14.79;100.00;101445.16;5224224;28;20040;-50
2023/09/27 02:49:25;;;;;;;4.22;2.80;;;14.60;99.90;;;14.75;100.00;101453.81;5232407;28;20056;-49
2023/09/27 02:51:58;;;;;;;3.10;2.40;;;14.50;99.90;;;14.74;100.00;101453.78;5224230;28;20103;-48
2023/09/27 02:54:31;;;;;;;3.88;2.30;;;14.50;99.90;;;14.72;100.00;101448.47;5240799;28;20052;-50
2023/09/27 02:57:08;;;;;;;4.32;2.92;;;14.50;99.90;;;14.74;100.00;101435.41;5223833;28;20442;-48
2023/09/27 02:59:40;;;;;;;3.78;2.80;;;14.50;99.90;;;14.73;100.00;101437.09;5240737;28;20502;-49
2023/09/27 03:02:13;;;;;;;4.25;2.70;;;14.40;99.90;;;14.72;100.00;101435.34;5238024;28;20063;-49
2023/09/27 03:04:47;;;;;;;3.53;2.45;;;14.50;99.90;;;14.74;100.00;101431.03;5214441;28;20041;-49
2023/09/27 03:07:20;;;;;;;3.55;2.35;;;14.50;99.90;;;14.75;100.00;101424.06;5233222;28;20512;-48
2023/09/27 03:09:52;;;;;;;2.90;2.28;;;14.50;99.90;;;14.78;100.00;101424.13;5232251;28;20154;-49
2023/09/27 03:12:26;;;;;;;4.32;2.45;;;14.50;99.90;;;14.80;100.00;101420.72;5240595;28;20135;-48
2023/09/27 03:14:59;;;;;;;4.00;2.55;;;14.50;99.90;;;14.81;100.00;101427.72;5236717;28;20132;-50
2023/09/27 03:17:31;;;;;;;3.60;2.38;;;14.60;99.90;;;14.78;100.00;101422.38;5219589;28;20543;-49
2023/09/27 03:20:13;;;;;;;3.13;2.42;;;14.50;99.90;;;14.75;100.00;101417.06;5231023;28;20124;-48
2023/09/27 03:22:46;;;;;;;3.72;2.30;;;14.50;99.90;;;14.73;100.00;101412.59;5223735;28;20153;-49
2023/09/27 03:25:21;;;;;;;3.72;2.58;;;14.50;99.90;;;14.69;100.00;101410.75;5240016;28;20044;-49
2023/09/27 03:27:56;;;;;;;3.63;2.63;;;14.40;99.90;;;14.68;100.00;101401.13;5231537;28;20155;-49
2023/09/27 03:30:29;;;;;;;3.35;2.35;;;14.40;99.90;;;14.67;100.00;101397.59;5223351;28;20056;-49
2023/09/27 03:33:05;;;;;;;3.45;2.38;;;14.50;99.90;;;14.64;100.00;101400.13;5233209;28;20053;-50
2023/09/27 03:35:38;;;;;;;3.45;2.35;;;14.40;99.90;;;14.62;100.00;101393.97;5223326;28;20057;-49
2023/09/27 03:38:11;;;;;;;3.60;2.35;;;14.40;99.90;;;14.60;100.00;101400.88;5239702;28;20504;-49
2023/09/27 03:40:43;;;;;;;4.57;2.97;;;14.40;99.90;;;14.58;100.00;101402.56;5223569;28;20052;-49
2023/09/27 03:43:20;;;;;;;3.70;2.30;;;14.40;99.90;;;14.57;100.00;101406.06;5222743;28;20124;-49
2023/09/27 03:45:52;;;;;;;3.75;2.65;;;14.30;99.90;;;14.54;100.00;101416.44;5222481;28;20059;-49
2023/09/27 03:48:26;;;;;;;4.10;2.58;;;14.30;99.90;;;14.50;100.00;101404.09;5231824;28;20045;-48
2023/09/27 03:50:58;;;;;;;3.85;2.53;;;14.30;99.90;;;14.46;100.00;101407.44;5233404;28;20111;-49
2023/09/27 03:53:35;;;;;;;3.92;2.42;;;14.20;99.90;;;14.42;100.00;101413.47;5215179;28;20059;-48
2023/09/27 03:56:07;;;;;;;3.58;2.53;;;14.20;99.90;;;14.40;100.00;101416.00;5211256;28;20049;-49
2023/09/27 03:58:41;;;;;;;2.80;2.10;;;14.20;99.90;;;14.37;100.00;101422.06;5220294;28;20045;-48
2023/09/27 04:01:16;;;;;;;4.55;2.50;;;14.20;99.90;;;14.33;100.00;101417.56;5216181;28;20072;-48
2023/09/27 04:03:49;;;;;;;3.53;2.45;;;14.10;99.90;;;14.31;100.00;101424.50;5223494;28;20046;-48
2023/09/27 04:06:21;;;;;;;3.47;2.30;;;14.10;99.90;;;14.28;100.00;101429.69;5239387;28;20040;-48
2023/09/27 04:08:53;;;;;;;3.15;2.60;;;14.10;99.90;;;14.27;100.00;101437.47;5231893;28;20477;-49
2023/09/27 04:11:26;;;;;;;3.15;2.25;;;14.10;99.90;;;14.24;100.00;101430.44;5220574;28;20049;-48
2023/09/27 04:14:00;;;;;;;4.35;2.40;;;14.00;99.90;;;14.22;100.00;101423.38;5211300;28;20518;-48
2023/09/27 04:16:32;;;;;;;3.50;2.33;;;14.00;99.90;;;14.24;100.00;101417.31;5234792;28;20655;-50
2023/09/27 04:19:05;;;;;;;3.67;2.40;;;14.00;99.90;;;14.28;100.00;101406.09;5237631;28;20076;-50
2023/09/27 04:21:38;;;;;;;3.92;2.53;;;14.10;99.90;;;14.32;100.00;101405.31;5223425;28;20053;-49
2023/09/27 04:24:11;;;;;;;4.13;2.70;;;14.10;99.90;;;14.36;100.00;101406.31;5222076;28;20052;-49
2023/09/27 04:26:44;;;;;;;3.10;2.30;;;14.10;99.90;;;14.37;100.00;101411.59;5222318;28;20103;-48
2023/09/27 04:29:18;;;;;;;3.45;2.65;;;14.10;99.90;;;14.36;100.00;101409.81;5223043;28;20151;-48
2023/09/27 04:31:50;;;;;;;4.43;2.70;;;14.10;99.90;;;14.34;100.00;101398.41;5222172;28;20512;-50
2023/09/27 04:34:23;;;;;;;4.18;2.60;;;14.10;99.90;;;14.33;100.00;101401.84;5230602;28;20072;-49
2023/09/27 04:36:55;;;;;;;4.20;2.88;;;14.10;99.90;;;14.33;100.00;101395.69;5231654;28;20041;-48
2023/09/27 04:39:31;;;;;;;3.80;3.00;;;14.10;99.90;;;14.31;100.00;101403.53;5238732;28;20470;-49
2023/09/27 04:42:04;;;;;;;3.80;2.50;;;14.10;99.90;;;14.26;100.00;101389.38;5229251;28;20050;-48
2023/09/27 04:44:39;;;;;;;4.10;2.95;;;14.00;99.90;;;14.22;100.00;101399.78;5232252;28;20456;-48
2023/09/27 04:47:15;;;;;;;2.67;2.20;;;14.00;99.90;;;14.19;100.00;101399.66;5213584;28;20049;-48
2023/09/27 04:49:47;;;;;;;4.15;2.72;;;14.00;99.90;;;14.15;100.00;101397.78;5237652;28;20139;-49
2023/09/27 04:52:20;;;;;;;3.30;2.40;;;13.90;99.90;;;14.12;100.00;101401.22;5238711;28;20098;-48
2023/09/27 04:54:56;;;;;;;4.18;2.55;;;13.90;99.90;;;14.09;100.00;101411.63;5226473;28;20084;-49
2023/09/27 04:57:28;;;;;;;3.90;2.53;;;13.90;99.90;;;14.04;100.00;101421.06;5222067;28;20044;-49
2023/09/27 05:00:03;;;;;;;3.95;2.65;;;13.80;99.90;;;13.99;100.00;101415.69;5221962;28;20053;-49
2023/09/27 05:02:35;;;;;;;5.25;2.83;;;13.80;99.90;;;13.96;100.00;101419.94;5221991;28;20132;-48
2023/09/27 05:05:11;;;;;;;3.42;2.33;;;13.70;99.90;;;13.92;100.00;101418.06;5238502;28;20072;-49
2023/09/27 05:07:43;;;;;;;4.05;2.53;;;13.70;99.90;;;13.91;100.00;101432.00;5221028;28;20508;-48
2023/09/27 05:10:16;;;;;;;4.95;3.15;;;13.70;99.90;;;13.88;100.00;101424.03;5222204;28;20498;-49
2023/09/27 05:12:48;;;;;;;4.15;2.83;;;13.70;99.90;;;13.83;100.00;101419.56;5238178;28;20053;-49
2023/09/27 05:15:22;;;;;;;4.07;2.38;;;13.70;99.90;;;13.83;100.00;101423.91;5221977;28;20131;-49
2023/09/27 05:17:55;;;;;;;4.28;2.75;;;13.60;99.90;;;13.86;100.00;101416.13;5237052;28;20049;-48
2023/09/27 05:20:28;;;;;;;4.03;3.00;;;13.60;99.90;;;13.89;100.00;101416.25;5227391;28;20536;-48
2023/09/27 05:23:00;;;;;;;4.10;2.88;;;13.70;99.90;;;13.93;100.00;101422.47;5219487;28;20059;-48
2023/09/27 05:25:35;;;;;;;3.67;2.47;;;13.70;99.90;;;13.95;100.00;101420.75;5237728;28;20053;-48
2023/09/27 05:28:09;;;;;;;4.57;2.83;;;13.80;99.90;;;14.00;100.00;101417.44;5240513;28;20060;-48
2023/09/27 05:30:43;;;;;;;5.43;2.70;;;13.80;99.90;;;14.04;100.00;101413.22;5241099;28;20140;-48
2023/09/27 05:33:18;;;;;;;4.25;3.15;;;13.80;99.90;;;14.06;100.00;101417.63;5241753;28;20052;-47
2023/09/27 05:35:51;;;;;;;4.15;3.03;;;13.90;99.90;;;14.08;100.00;101415.06;5240139;28;20577;-48
2023/09/27 05:38:23;;;;;;;4.28;2.85;;;13.90;99.90;;;14.07;100.00;101423.78;5240720;28;20122;-48
2023/09/27 05:40:56;;;;;;;4.35;3.45;;;13.90;99.90;;;14.08;100.00;101431.72;5224370;28;20284;-47
2023/09/27 05:43:31;;;;;;;6.20;3.13;;;13.90;99.90;;;14.14;100.00;101420.50;5240853;28;20577;-48
2023/09/27 05:46:05;;;;;;;4.40;2.90;;;14.00;99.90;;;14.22;100.00;101415.50;5224145;28;20055;-50
2023/09/27 05:48:37;;;;;;;4.43;3.30;;;14.00;99.90;;;14.28;100.00;101420.91;5234742;28;20045;-49
2023/09/27 05:51:09;;;;;;;5.15;3.45;;;14.10;99.90;;;14.33;100.00;101424.56;5218395;28;20048;-48
2023/09/27 05:53:42;;;;;;;3.67;2.80;;;14.20;99.90;;;14.39;100.00;101427.34;5218458;28;20045;-47
2023/09/27 05:56:14;;;;;;;4.75;3.20;;;14.20;99.90;;;14.43;100.00;101428.34;5224447;28;20148;-48
2023/09/27 05:58:47;;;;;;;5.18;2.97;;;14.30;99.90;;;14.48;100.00;101432.03;5235109;28;20045;-48
2023/09/27 06:01:24;;;;;;;4.82;2.83;;;14.30;99.90;;;14.53;100.00;101431.28;5218427;28;20525;-49
2023/09/27 06:03:56;;;;;;;5.93;3.15;;;14.30;99.90;;;14.60;100.00;101421.88;5234798;28;20072;-49
2023/09/27 06:06:29;;;;;;;5.03;3.22;;;14.40;99.90;;;14.67;100.00;101413.34;5236537;28;20045;-49
2023/09/27 06:09:02;;;;;;;5.85;3.58;;;14.50;99.90;;;14.74;100.00;101393.41;5222875;28;20088;-49
2023/09/27 06:11:35;;;;;;;5.80;3.33;;;14.50;99.90;;;14.91;100.00;101398.25;5234164;28;20057;-49
2023/09/27 06:14:10;;;;;;;6.05;3.85;;;14.70;99.90;;;15.11;100.00;101406.66;5225027;28;20079;-48
2023/09/27 06:16:44;;;;;;;;;;;14.90;99.90;;;15.32;100.00;101418.53;5225214;28;20048;-49
2023/09/27 06:19:17;;;;;;;5.03;3.40;;;15.10;99.90;;;15.55;100.00;101420.03;5241568;28;20268;-49
2023/09/27 06:21:49;;;;;;;4.20;2.80;;;15.30;99.90;;;15.76;100.00;101414.41;5224672;28;20053;-48
2023/09/27 06:24:22;;;;;;;5.45;3.47;;;15.50;99.90;;;16.01;100.00;101415.88;5241325;28;20041;-48
2023/09/27 06:26:54;;;;;;;6.05;3.30;;;15.70;99.90;;;16.26;100.00;101422.56;5224591;28;20912;-49
2023/09/27 06:29:27;;;;;;;4.80;3.10;;;15.90;99.90;;;16.47;100.00;101436.16;5220553;28;20046;-47
2023/09/27 06:32:01;;;;;;;6.93;3.40;;;16.20;99.90;;;16.68;100.00;101454.13;5231616;28;20063;-48
2023/09/27 06:34:35;;;;;;;5.30;3.25;;;16.40;99.90;;;16.94;100.00;101462.59;5233661;28;20496;-47
2023/09/27 06:37:07;;;;;;;6.50;3.17;;;16.70;99.90;;;17.17;100.00;101472.69;5222916;28;20135;-48
2023/09/27 06:39:41;;;;;;;4.45;3.13;;;16.90;99.90;;;17.31;100.00;101472.06;5223061;28;20048;-48
2023/09/27 06:42:13;;;;;;;4.43;2.83;;;17.00;99.90;;;17.38;100.00;101459.88;5231774;28;20111;-48
2023/09/27 06:44:46;;;;;;;4.80;2.88;;;17.10;99.90;;;17.42;100.00;101455.56;5233295;28;20049;-48
2023/09/27 06:47:23;;;;;;;5.75;3.45;;;17.20;99.90;;;17.48;100.00;101453.94;5233741;28;20063;-47
2023/09/27 06:49:56;;;;;;;4.78;2.88;;;17.30;99.90;;;17.53;100.00;101456.63;5233615;28;20500;-47
2023/09/27 06:52:29;;;;;;;4.22;2.83;;;17.30;99.90;;;17.54;100.00;101455.75;5240138;28;20503;-48
2023/09/27 06:55:01;;;;;;;4.78;3.03;;;17.30;99.90;;;17.55;100.00;101462.81;5227162;28;20076;-48
2023/09/27 06:57:34;;;;;;;5.32;3.92;;;17.30;99.90;;;17.54;100.00;101463.66;5223345;28;20477;-48
2023/09/27 07:00:13;;;;;;;4.43;3.35;;;17.30;99.90;;;17.55;100.00;101463.72;5228041;28;20389;-48
2023/09/27 07:02:47;;;;;;;4.47;2.95;;;17.40;99.90;;;17.57;100.00;101456.69;5217680;28;20049;-49
2023/09/27 07:05:23;;;;;;;4.30;3.10;;;17.30;99.90;;;17.60;100.00;101458.50;5227245;28;20053;-48
2023/09/27 07:07:56;;;;;;;4.55;3.22;;;17.40;99.90;;;17.59;100.00;101454.97;5228365;28;20069;-47
2023/09/27 07:10:28;;;;;;;11.13;3.40;;;17.40;99.90;;;17.57;100.00;101456.69;5228057;28;20496;-47
2023/09/27 07:13:01;;;;;;;5.68;3.20;;;17.40;99.90;;;17.56;100.00;101449.66;5217210;28;20228;-52
2023/09/27 07:15:33;;;;;;;4.43;2.88;;;17.40;99.90;;;17.65;100.00;101448.91;5218496;28;20052;-48
2023/09/27 07:18:07;;;;;;;4.47;2.75;;;17.40;99.90;;;17.68;100.00;101456.00;5231452;28;20045;-47
2023/09/27 07:20:41;;;;;;;3.75;2.70;;;17.40;99.90;;;17.68;100.00;101448.09;5233703;28;20072;-48
2023/09/27 07:23:15;;;;;;;4.80;2.92;;;17.40;99.90;;;17.69;100.00;101445.47;5231918;28;20080;-49
2023/09/27 07:25:50;;;;;;;4.78;2.90;;;17.40;99.90;;;17.68;100.00;101432.28;5232172;28;20069;-48
2023/09/27 07:28:23;;;;;;;5.45;2.90;;;17.40;99.90;;;17.60;100.00;101435.69;5226992;28;20045;-49
2023/09/27 07:30:55;;;;;;;4.28;2.90;;;17.40;99.90;;;17.61;100.00;101429.53;5233019;28;20199;-47
2023/09/27 07:33:32;;;;;;;4.00;2.65;;;17.30;99.90;;;17.71;100.00;101420.03;5221899;28;20045;-47
2023/09/27 07:36:08;;;;;;;4.47;2.72;;;17.40;99.90;;;17.81;100.00;101426.38;5227778;28;20511;-48
2023/09/27 07:38:41;;;;;;;4.72;2.63;;;17.50;99.90;;;17.83;100.00;101427.25;5231796;28;20111;-48
2023/09/27 07:41:16;;;;;;;3.70;2.78;;;17.50;99.90;;;17.83;100.00;101424.63;5219519;28;20128;-48
2023/09/27 07:43:50;;;;;;;4.80;2.90;;;17.50;99.90;;;17.80;100.00;101432.47;5235871;28;20060;-47
2023/09/27 07:46:22;;;;;;;3.85;2.80;;;17.50;99.90;;;17.79;100.00;101436.88;5233290;28;20420;-47
2023/09/27 07:48:56;;;;;;;4.32;3.08;;;17.50;99.90;;;17.81;100.00;101450.97;5238839;28;20431;-48
2023/09/27 07:51:28;;;;;;;4.13;2.30;;;17.50;99.90;;;17.83;100.00;101458.91;5228921;28;20051;-48
2023/09/27 07:54:02;;;;;;;3.90;2.55;;;17.50;99.90;;;17.87;100.00;101460.75;5224824;28;20071;-47
2023/09/27 07:56:39;;;;;;;4.03;2.55;;;17.50;99.90;;;17.88;100.00;101452.84;5219988;28;20048;-47
2023/09/27 07:59:12;;;;;;;4.22;2.38;;;17.50;99.90;;;17.90;100.00;101460.78;5234829;28;20045;-47
2023/09/27 08:01:45;;;;;;;5.18;3.35;;;17.50;99.90;;;17.86;100.00;101467.75;5233804;28;20447;-48
2023/09/27 08:04:19;;;;;;;5.05;3.20;;;17.50;99.90;;;17.85;100.00;101473.00;5233462;28;20049;-48
2023/09/27 08:06:52;;;;;;;5.15;3.45;;;17.50;99.90;;;17.82;100.00;101470.34;5234342;28;20589;-46
2023/09/27 08:09:25;;;;;;;3.33;2.33;;;17.50;99.90;;;17.82;100.00;101458.03;5222138;28;20152;-47
2023/09/27 08:11:58;;;;;;;4.30;2.90;;;17.50;99.90;;;17.85;100.00;101460.69;5232595;28;20084;-47
2023/09/27 08:14:30;;;;;;;4.40;3.17;;;17.50;99.90;;;17.86;100.00;101465.09;5237947;28;20474;-49
2023/09/27 08:17:04;;;;;;;3.25;2.50;;;17.50;99.90;;;17.88;100.00;101460.75;5224591;28;20056;-46
2023/09/27 08:19:38;;;;;;;3.38;2.40;;;17.50;99.90;;;17.92;100.00;101459.03;5221476;28;20044;-47
2023/09/27 08:22:11;;;;;;;4.47;2.97;;;17.60;99.90;;;17.95;100.00;101460.84;5220710;28;20057;-47
2023/09/27 08:24:43;;;;;;;4.80;3.05;;;17.60;99.90;;;17.99;100.00;101465.28;5230352;28;20052;-47
2023/09/27 08:27:18;;;;;;;4.40;2.67;;;17.60;99.90;;;18.03;100.00;101461.84;5222347;28;20049;-47
2023/09/27 08:29:51;;;;;;;4.47;3.17;;;17.60;99.90;;;18.12;100.00;101454.94;5236904;28;20087;-46
2023/09/27 08:32:23;;;;;;;6.60;3.45;;;17.70;99.90;;;18.40;100.00;101456.22;5234084;28;20118;-49
2023/09/27 08:34:57;;;;;;;4.60;2.70;;;17.90;99.90;;;18.65;100.00;101454.78;5225025;28;20052;-47
2023/09/27 08:37:29;;;;;;;7.10;3.75;;;18.10;99.90;;;18.98;100.00;101454.31;5239170;28;20056;-47
2023/09/27 08:40:04;;;;;;;5.82;3.50;;;18.40;99.90;;;19.73;100.00;101451.50;5238494;28;20061;-48
2023/09/27 08:42:36;;;;;;;4.28;3.08;;;18.80;99.90;;;20.53;100.00;101452.91;5232108;28;20131;-47
2023/09/27 08:45:13;;;;;;;4.47;3.15;;;19.50;99.90;;;21.08;100.00;101438.06;5221912;28;20507;-46
2023/09/27 08:47:50;;;;;;;4.38;3.10;;;20.00;99.90;;;21.20;100.00;101434.56;5230872;28;20562;-48
2023/09/27 08:50:25;;;;;;;7.25;4.03;;;20.30;99.90;;;21.15;100.00;101428.34;5222288;28;20404;-48
2023/09/27 08:52:58;;;;;;;4.72;3.15;;;20.40;99.90;;;21.26;100.00;101423.97;5238612;28;20056;-49
2023/09/27 08:55:31;;;;;;;4.50;3.25;;;20.60;99.90;;;21.51;100.00;101410.72;5238726;28;20404;-48
2023/09/27 08:58:04;;;;;;;5.00;3.30;;;20.80;99.90;;;21.80;100.00;101408.94;5222211;28;20392;-48
2023/09/27 09:00:41;;;;;;;4.85;2.70;;;21.10;99.90;;;22.03;100.00;101392.06;5222485;28;20148;-47
2023/09/27 09:03:14;;;;;;;5.43;3.30;;;21.40;99.90;;;22.13;99.62;101380.56;5226745;28;20041;-47
2023/09/27 09:05:52;;;;;;;4.38;3.00;;;21.60;99.90;;;22.22;99.12;101372.56;5230674;28;20052;-48
2023/09/27 09:08:24;;;;;;;4.90;2.58;;;21.70;99.90;;;22.25;98.97;101375.22;5226155;28;20605;-49
2023/09/27 09:10:57;;;;;;;5.78;2.67;;;21.70;99.90;;;22.39;98.73;101378.69;5226126;28;20072;-49
2023/09/27 09:13:29;;;;;;;4.38;3.03;;;21.80;99.90;;;22.51;98.36;101372.44;5225380;28;20072;-48
2023/09/27 09:16:14;;;;;;;4.40;2.88;;;22.00;99.90;;;22.66;97.22;101376.78;5239711;28;20041;-48
2023/09/27 09:18:48;;;;;;;3.70;2.42;;;22.10;99.90;;;22.80;97.15;101380.22;5220278;28;20095;-49
2023/09/27 09:21:21;;;;;;;5.00;2.60;;;22.20;99.90;;;22.85;95.26;101377.56;5224408;28;20053;-49
2023/09/27 09:23:54;;;;;;;3.38;2.10;;;22.30;99.90;;;22.93;96.49;101376.63;5237496;28;20126;-48
2023/09/27 09:26:28;;;;;;;3.13;2.22;;;22.40;99.90;;;23.16;96.24;101368.50;5233122;28;20052;-48
2023/09/27 09:29:00;;;;;;;3.47;2.55;;;22.50;99.90;;;23.31;94.78;101370.13;5236204;28;20160;-48
2023/09/27 09:31:33;;;;;;;2.92;2.17;;;22.70;99.90;;;23.48;94.27;101376.22;5237049;28;20136;-49
2023/09/27 09:34:07;;;;;;;2.88;2.47;;;22.70;99.90;;;23.61;92.83;101369.03;5223080;28;20057;-48
2023/09/27 09:36:40;;;;;;;3.25;2.25;;;22.90;99.90;;;23.71;93.39;101376.00;5237056;28;20794;-48
2023/09/27 09:39:14;;;;;;;3.47;2.20;;;23.00;99.90;;;23.76;92.42;101365.31;5218107;28;20041;-48
2023/09/27 09:41:52;;;;;;;3.53;2.33;;;23.00;99.50;;;23.88;92.11;101364.31;5233918;28;20041;-47
2023/09/27 09:44:25;;;;;;;4.13;2.30;;;23.20;99.50;;;24.01;92.35;101361.47;5219829;28;20044;-47
2023/09/27 09:47:11;;;;;;;4.25;2.67;;;23.20;99.50;;;24.09;91.20;101359.59;5235663;28;20049;-48
2023/09/27 09:49:45;;;;;;;3.72;2.47;;;23.30;99.20;;;24.04;90.73;101350.78;5220085;28;20045;-47
2023/09/27 09:52:21;;;;;;;3.35;2.25;;;23.30;98.90;;;24.00;91.28;101345.53;5235001;28;20068;-49
2023/09/27 09:54:58;;;;;;;3.70;2.30;;;23.30;99.00;;;24.02;91.69;101355.25;5223829;28;20045;-48
2023/09/27 09:57:36;;;;;;;2.88;2.25;;;23.30;99.10;;;24.03;91.01;101346.34;5220405;28;20053;-49
2023/09/27 10:00:16;;;;;;;7.30;2.53;;;23.30;98.90;;;24.04;90.59;101353.44;5232920;28;20048;-49
2023/09/27 10:02:52;;;;;;;4.22;2.35;;;23.30;98.60;;;23.96;90.82;101341.13;5234165;28;20049;-48
2023/09/27 10:05:25;;;;;;;3.20;2.50;;;23.30;98.60;;;24.07;90.99;101340.09;5219568;28;20049;-49
2023/09/27 10:08:00;;;;;;;3.50;2.17;;;23.40;98.60;;;24.01;90.00;101336.63;5234905;28;20052;-49
2023/09/27 10:10:33;;;;;;;4.18;2.50;;;23.30;98.20;;;24.06;90.89;101341.00;5221461;28;20052;-49
2023/09/27 10:13:08;;;;;;;3.30;2.38;;;23.40;98.50;;;24.25;90.51;101341.63;5236498;28;20076;-49
2023/09/27 10:15:42;;;;;;;3.47;2.47;;;23.50;98.50;;;24.48;90.30;101328.03;5234144;28;20044;-47
2023/09/27 10:18:33;;;;;;;5.32;2.22;;;23.70;98.40;;;24.72;89.21;101325.94;5221986;28;20052;-48
2023/09/27 10:21:08;;;;;;;3.53;2.38;;;23.90;98.10;;;24.81;87.34;101312.44;5226077;28;20055;-49
2023/09/27 10:24:10;;;;;;;2.75;2.38;;;24.00;97.40;;;24.94;86.22;101303.34;5234621;28;20051;-49
2023/09/27 10:26:43;;;;;;;3.65;2.38;;;24.20;96.90;;;25.04;87.59;101297.00;5205812;28;20092;-47
2023/09/27 10:29:17;;;;;;;2.97;1.95;;;24.30;97.30;;;25.12;85.75;101297.75;5219792;28;20144;-48
2023/09/27 10:32:23;;;;;;;4.32;2.40;;;24.40;96.50;;;25.19;84.87;101276.31;5237050;28;20512;-49
2023/09/27 10:34:56;;;;;;;3.05;2.15;;;24.50;96.10;;;25.31;85.38;101290.28;5237172;28;20045;-49